Terminal Aerodrome Forecast
Issued by NWS

Home | Current Version | Previous Version | Text Only | Print | Product List | Glossary On
Versions: 1 2 3 4 5 6 7 8 9 10 11 12
000
FTUS44 KEPZ 011741
TAFDMN
TAF
KDMN 011741Z 0118/0218 12011KT P6SM SCT100 BKN250
     FM020200 05012KT P6SM SCT100
     FM020900 06010KT P6SM FEW100
     FM021600 06012G20KT P6SM FEW100=

USA.gov is the U.S. government's official web portal to all federal, state and local government web resources and services.